Terminal Aerodrome Forecast
Issued by NWS

Home | Current Version | Previous Version | Text Only | Print | Product List | Glossary Off
Versions: 1 2 3 4 5 6 7 8 9 10 11 12 13 14 15 16

000
FTUS43 KICT 031722
TAFHUT
TAF
KHUT 031722Z 0318/0418 19017G25KT P6SM FEW100
     FM040100 18012KT P6SM SCT100 BKN200
     FM040900 18010KT P6SM VCSH BKN100 OVC200
     FM041600 19012KT P6SM SCT100 BKN200=

USA.gov is the U.S. government's official web portal to all federal, state and local government web resources and services.